createdAt,value
2022-10-06T00:00:46.710Z,9.53
2022-10-06T00:03:13.626Z,9.53
2022-10-06T00:05:40.467Z,9.59
2022-10-06T00:08:10.259Z,9.52
2022-10-06T00:10:37.435Z,9.54
2022-10-06T00:13:04.238Z,9.48
2022-10-06T00:15:32.683Z,9.54
2022-10-06T00:18:26.811Z,9.55
2022-10-06T00:20:55.506Z,9.46
2022-10-06T00:23:22.666Z,9.48
2022-10-06T00:25:51.852Z,9.44
2022-10-06T00:28:18.725Z,9.46
2022-10-06T00:30:45.837Z,9.28
2022-10-06T00:33:17.288Z,9.36
2022-10-06T00:35:46.677Z,9.36
2022-10-06T00:38:15.986Z,9.39
2022-10-06T00:40:45.152Z,9.32
2022-10-06T00:43:40.398Z,9.36
2022-10-06T00:46:23.581Z,9.35
2022-10-06T00:48:58.567Z,9.36
2022-10-06T00:51:28.784Z,9.30
2022-10-06T00:53:55.691Z,9.34
2022-10-06T00:56:22.712Z,9.17
2022-10-06T00:58:50.387Z,9.33
2022-10-06T01:01:17.528Z,9.31
2022-10-06T01:04:17.458Z,9.37
2022-10-06T01:06:54.636Z,9.31
2022-10-06T01:09:23.929Z,9.13
2022-10-06T01:11:53.825Z,9.19
2022-10-06T01:14:22.725Z,9.23
2022-10-06T01:17:11.774Z,9.16
2022-10-06T01:20:09.933Z,9.07
2022-10-06T01:22:41.821Z,9.17
2022-10-06T01:25:12.270Z,9.15
2022-10-06T01:27:42.542Z,9.11
2022-10-06T01:30:16.237Z,9.12
2022-10-06T01:32:43.479Z,8.88
2022-10-06T01:35:10.556Z,9.06
2022-10-06T01:37:38.933Z,9.00
2022-10-06T01:40:06.551Z,9.10
2022-10-06T01:42:35.748Z,8.99
2022-10-06T01:45:03.675Z,9.09
2022-10-06T01:47:30.555Z,9.07
2022-10-06T01:49:57.321Z,9.10
2022-10-06T01:52:24.161Z,9.16
2022-10-06T01:54:50.975Z,9.07
2022-10-06T01:57:17.881Z,8.92
2022-10-06T01:59:44.713Z,9.13
2022-10-06T02:02:11.577Z,9.12
2022-10-06T02:04:38.422Z,9.05
2022-10-06T02:07:05.824Z,9.09
2022-10-06T02:09:41.116Z,9.21
2022-10-06T02:12:08.863Z,9.08
2022-10-06T02:14:39.290Z,9.07
2022-10-06T02:17:06.139Z,9.16
2022-10-06T02:19:32.980Z,9.08
2022-10-06T02:50:34.186Z,8.04
2022-10-06T02:53:01.937Z,8.05
2022-10-06T02:55:29.279Z,8.35
2022-10-06T02:57:56.124Z,8.47
2022-10-06T03:00:23.050Z,8.39
2022-10-06T03:02:50.178Z,8.25
2022-10-06T03:05:17.124Z,8.61
2022-10-06T03:07:44.131Z,8.59
2022-10-06T03:10:10.948Z,8.51
2022-10-06T03:12:38.199Z,8.63
2022-10-06T03:15:13.016Z,8.69
2022-10-06T03:17:40.417Z,8.63
2022-10-06T03:20:08.051Z,8.84
2022-10-06T03:22:35.191Z,8.80
2022-10-06T03:25:02.361Z,8.77
2022-10-06T03:27:30.012Z,8.70
2022-10-06T03:30:01.449Z,8.55
2022-10-06T03:32:31.516Z,8.67
2022-10-06T03:34:58.394Z,8.70
2022-10-06T03:37:25.271Z,8.79
2022-10-06T03:39:52.190Z,8.68
2022-10-06T03:42:20.092Z,8.78
2022-10-06T03:44:47.303Z,8.93
2022-10-06T03:47:17.175Z,8.97
2022-10-06T03:49:45.075Z,8.90
2022-10-06T03:52:12.948Z,8.98
2022-10-06T03:54:39.951Z,8.92
2022-10-06T03:57:06.753Z,9.10
2022-10-06T03:59:33.566Z,9.13
2022-10-06T04:02:01.686Z,8.98
2022-10-06T04:04:34.315Z,8.88
2022-10-06T04:07:05.824Z,9.11
2022-10-06T04:09:32.713Z,9.24
2022-10-06T04:12:00.721Z,9.16
2022-10-06T04:14:29.131Z,9.15
2022-10-06T04:16:56.827Z,9.14
2022-10-06T04:19:43.935Z,9.27
2022-10-06T04:22:10.868Z,9.38
2022-10-06T04:24:37.672Z,9.34
2022-10-06T04:27:04.879Z,9.25
2022-10-06T04:29:31.728Z,9.38
2022-10-06T04:31:58.654Z,9.38
2022-10-06T04:34:47.604Z,9.49
2022-10-06T04:37:15.367Z,9.28
2022-10-06T04:40:03.821Z,9.34
2022-10-06T04:42:35.234Z,9.37
2022-10-06T04:45:05.968Z,9.42
2022-10-06T04:47:33.675Z,9.31
2022-10-06T04:50:00.707Z,9.26
2022-10-06T04:52:27.653Z,9.23
2022-10-06T04:54:54.479Z,9.27
2022-10-06T04:57:21.630Z,9.39
2022-10-06T04:59:49.153Z,9.35
2022-10-06T05:02:17.286Z,9.36
2022-10-06T05:04:45.638Z,9.45
2022-10-06T05:07:14.591Z,9.55
2022-10-06T05:09:41.899Z,9.57
2022-10-06T05:12:09.544Z,9.72
2022-10-06T05:14:36.363Z,9.58
2022-10-06T05:17:04.052Z,9.50
2022-10-06T05:19:31.506Z,9.45
2022-10-06T05:21:58.324Z,9.71
2022-10-06T05:24:29.078Z,9.90
2022-10-06T05:27:00.848Z,9.79
2022-10-06T05:30:04.666Z,10.24
2022-10-06T05:32:35.933Z,10.14
2022-10-06T05:35:04.673Z,10.37
2022-10-06T05:37:31.688Z,10.22
2022-10-06T05:39:58.716Z,10.30
2022-10-06T05:42:29.563Z,10.54
2022-10-06T05:44:57.783Z,10.62
2022-10-06T05:47:24.908Z,10.42
2022-10-06T05:49:51.936Z,10.25
2022-10-06T05:52:18.781Z,10.19
2022-10-06T05:54:45.790Z,10.34
2022-10-06T05:57:12.763Z,10.49
2022-10-06T05:59:39.771Z,10.41
2022-10-06T06:02:09.167Z,10.35
2022-10-06T06:04:42.382Z,10.25
2022-10-06T06:07:10.324Z,10.19
2022-10-06T06:09:39.005Z,10.08
2022-10-06T06:12:08.595Z,10.23
2022-10-06T06:14:49.876Z,10.24
2022-10-06T06:17:21.229Z,10.22
2022-10-06T06:19:48.114Z,10.25
2022-10-06T06:22:15.953Z,10.17
2022-10-06T06:24:45.058Z,10.28
2022-10-06T06:27:12.324Z,10.30
2022-10-06T06:29:40.247Z,10.17
2022-10-06T06:32:10.030Z,10.25
2022-10-06T06:34:37.332Z,10.54
2022-10-06T06:37:08.462Z,10.44
2022-10-06T06:39:39.145Z,10.69
2022-10-06T06:42:06.212Z,10.55
2022-10-06T06:44:41.741Z,10.46
2022-10-06T06:47:17.202Z,10.44
2022-10-06T06:49:44.217Z,10.80
2022-10-06T06:52:11.879Z,10.65
2022-10-06T06:54:40.730Z,10.53
2022-10-06T06:57:12.020Z,10.59
2022-10-06T06:59:42.361Z,11.07
2022-10-06T07:02:11.224Z,10.81
2022-10-06T07:04:40.599Z,10.97
2022-10-06T07:07:11.409Z,11.00
2022-10-06T07:09:38.599Z,10.81
2022-10-06T07:12:10.331Z,10.78
2022-10-06T07:14:39.134Z,10.61
2022-10-06T07:17:06.334Z,10.75
2022-10-06T07:19:34.131Z,10.70
2022-10-06T07:22:15.202Z,11.14
2022-10-06T07:24:45.614Z,11.39
2022-10-06T07:27:15.145Z,11.48
2022-10-06T07:29:42.161Z,11.77
2022-10-06T07:32:09.144Z,11.85
2022-10-06T07:34:36.157Z,11.78
2022-10-06T07:37:06.385Z,12.31
2022-10-06T07:39:34.585Z,12.66
2022-10-06T07:42:01.376Z,12.67
2022-10-06T07:44:30.321Z,12.57
2022-10-06T07:46:57.139Z,12.49
2022-10-06T07:49:37.548Z,12.35
2022-10-06T07:52:08.078Z,12.47
2022-10-06T07:54:35.111Z,12.78
2022-10-06T07:57:44.302Z,12.67
2022-10-06T08:00:12.704Z,12.67
2022-10-06T08:02:39.520Z,12.91
2022-10-06T08:05:08.715Z,13.02
2022-10-06T08:07:55.653Z,13.05
2022-10-06T08:10:22.657Z,13.20
2022-10-06T08:12:59.899Z,13.12
2022-10-06T08:15:28.774Z,13.11
2022-10-06T08:17:55.534Z,13.11
2022-10-06T08:20:22.375Z,12.97
2022-10-06T08:23:07.684Z,13.06
2022-10-06T08:25:35.442Z,12.78
2022-10-06T08:28:02.410Z,13.26
2022-10-06T08:30:29.737Z,13.11
2022-10-06T08:32:56.734Z,13.28
2022-10-06T08:36:11.365Z,13.24
2022-10-06T08:38:38.860Z,13.14
2022-10-06T08:41:24.342Z,13.36
2022-10-06T08:44:18.600Z,12.89
2022-10-06T08:46:55.435Z,13.18
2022-10-06T08:49:25.548Z,13.17
2022-10-06T08:52:18.916Z,13.01
2022-10-06T08:55:04.133Z,12.45
2022-10-06T08:57:36.601Z,12.71
2022-10-06T09:00:11.692Z,12.72
2022-10-06T09:02:44.626Z,12.97
2022-10-06T09:05:20.878Z,13.31
2022-10-06T09:08:09.337Z,13.20
2022-10-06T09:10:57.284Z,13.10
2022-10-06T09:13:32.632Z,13.18
2022-10-06T09:16:07.121Z,12.95
2022-10-06T09:19:08.379Z,13.27
2022-10-06T09:21:51.347Z,13.34
2022-10-06T09:24:43.568Z,13.20
2022-10-06T09:27:23.915Z,13.14
2022-10-06T09:29:51.506Z,13.13
2022-10-06T09:32:20.791Z,13.24
2022-10-06T09:34:54.195Z,13.09
2022-10-06T09:37:21.012Z,13.19
2022-10-06T09:39:50.768Z,13.21
2022-10-06T09:42:23.477Z,13.10
2022-10-06T09:44:50.334Z,13.19
2022-10-06T09:47:37.565Z,13.15
2022-10-06T09:50:24.106Z,13.30
2022-10-06T09:52:59.927Z,13.46
2022-10-06T09:55:38.056Z,13.31
2022-10-06T09:58:32.176Z,13.69
2022-10-06T10:01:00.575Z,13.62
2022-10-06T10:03:44.507Z,13.66
2022-10-06T10:06:32.915Z,13.75
2022-10-06T10:09:20.709Z,13.63
2022-10-06T10:12:19.391Z,13.52
2022-10-06T10:14:46.437Z,13.33
2022-10-06T10:17:24.543Z,13.25
2022-10-06T10:19:54.206Z,13.18
2022-10-06T10:22:33.862Z,13.19
2022-10-06T10:25:38.135Z,13.36
2022-10-06T10:28:13.918Z,12.96
2022-10-06T10:31:09.673Z,12.90
2022-10-06T10:34:05.062Z,13.07
2022-10-06T10:36:51.518Z,12.98
2022-10-06T10:39:43.629Z,12.84
2022-10-06T10:42:30.087Z,12.78
2022-10-06T10:45:13.304Z,12.45
2022-10-06T10:47:45.656Z,12.50
2022-10-06T10:50:51.642Z,12.53
2022-10-06T10:53:28.221Z,12.39
2022-10-06T10:55:55.536Z,12.38
2022-10-06T10:58:54.906Z,12.44
2022-10-06T11:01:57.841Z,12.40
2022-10-06T11:04:25.203Z,12.29
2022-10-06T11:07:10.719Z,12.31
2022-10-06T11:09:40.197Z,12.14
2022-10-06T11:12:12.765Z,12.33
2022-10-06T11:15:12.031Z,12.23
2022-10-06T11:17:43.571Z,12.31
2022-10-06T11:20:24.742Z,12.39
2022-10-06T11:23:08.715Z,12.22
2022-10-06T11:26:03.300Z,12.26
2022-10-06T11:29:11.132Z,12.34
2022-10-06T11:31:52.005Z,12.53
2022-10-06T11:34:18.960Z,12.22
2022-10-06T11:36:58.066Z,12.26
2022-10-06T11:39:50.477Z,12.22
2022-10-06T11:42:36.196Z,12.46
2022-10-06T11:45:13.731Z,12.24
2022-10-06T11:48:08.462Z,12.44
2022-10-06T11:50:43.284Z,12.14
2022-10-06T11:53:34.294Z,12.31
2022-10-06T11:56:16.544Z,12.28
2022-10-06T11:58:52.564Z,12.29
2022-10-06T12:01:31.682Z,12.24
2022-10-06T12:04:10.773Z,12.27
2022-10-06T12:06:43.740Z,12.40
2022-10-06T12:09:25.809Z,12.57
2022-10-06T12:12:26.220Z,12.59
2022-10-06T12:18:29.143Z,12.59
2022-10-06T12:21:07.973Z,12.64
2022-10-06T12:24:05.689Z,12.85
2022-10-06T12:27:26.067Z,12.94
2022-10-06T12:30:02.319Z,12.84
2022-10-06T12:32:42.839Z,13.01
2022-10-06T12:35:16.676Z,12.98
2022-10-06T12:37:53.756Z,12.89
2022-10-06T12:40:39.609Z,13.21
2022-10-06T12:43:12.766Z,13.26
2022-10-06T12:45:46.387Z,13.16
2022-10-06T12:49:06.833Z,13.24
2022-10-06T12:51:43.393Z,13.24
2022-10-06T12:54:21.179Z,13.31
2022-10-06T12:57:03.145Z,13.23
2022-10-06T12:59:34.814Z,13.23
2022-10-06T13:02:27.219Z,13.33
2022-10-06T13:05:11.627Z,13.37
2022-10-06T13:07:59.769Z,13.24
2022-10-06T13:10:27.953Z,13.26
2022-10-06T13:12:55.251Z,13.20
2022-10-06T13:15:25.066Z,13.32
2022-10-06T13:17:55.956Z,13.18
2022-10-06T13:20:48.568Z,13.08
2022-10-06T13:23:29.407Z,13.16
2022-10-06T13:26:08.278Z,13.00
2022-10-06T13:28:44.319Z,13.17
2022-10-06T13:31:27.002Z,13.18
2022-10-06T13:34:03.730Z,13.07
2022-10-06T13:36:34.510Z,13.03
2022-10-06T13:39:13.330Z,13.04
2022-10-06T13:41:51.012Z,13.12
2022-10-06T13:44:42.476Z,13.14
2022-10-06T13:47:18.642Z,13.04
2022-10-06T13:50:03.020Z,13.05
2022-10-06T13:52:33.862Z,13.03
2022-10-06T13:55:02.618Z,13.06
2022-10-06T13:57:59.011Z,12.99
2022-10-06T14:00:34.186Z,12.97
2022-10-06T14:03:07.264Z,12.97
2022-10-06T14:05:36.983Z,12.84
2022-10-06T14:08:25.059Z,12.92
2022-10-06T14:11:07.373Z,13.00
2022-10-06T14:14:07.913Z,12.95
2022-10-06T14:16:43.551Z,12.85
2022-10-06T14:19:41.156Z,13.08
2022-10-06T14:22:33.045Z,12.99
2022-10-06T14:25:00.332Z,12.92
2022-10-06T14:27:33.329Z,12.86
2022-10-06T14:30:03.629Z,12.86
2022-10-06T14:35:17.762Z,12.87
2022-10-06T14:37:45.992Z,12.77
2022-10-06T14:40:12.871Z,12.74
2022-10-06T14:42:39.898Z,12.78
2022-10-06T14:45:27.178Z,12.81
2022-10-06T14:47:54.172Z,12.76
2022-10-06T14:50:21.036Z,12.68
2022-10-06T14:52:49.714Z,12.78
2022-10-06T14:55:20.913Z,12.76
2022-10-06T14:58:01.827Z,12.68
2022-10-06T15:00:34.565Z,12.70
2022-10-06T15:03:05.774Z,12.69
2022-10-06T15:05:32.779Z,12.75
2022-10-06T15:08:00.097Z,12.78
2022-10-06T15:10:27.213Z,12.70
2022-10-06T15:12:54.238Z,12.69
2022-10-06T15:15:21.345Z,12.66
2022-10-06T15:17:48.160Z,12.69
2022-10-06T15:20:15.300Z,12.67
2022-10-06T15:22:42.259Z,12.57
2022-10-06T15:25:10.235Z,12.68
2022-10-06T15:28:16.639Z,12.63
2022-10-06T15:30:45.809Z,12.74
2022-10-06T15:33:17.992Z,12.58
2022-10-06T15:36:03.671Z,12.53
2022-10-06T15:38:36.041Z,12.64
2022-10-06T15:41:03.731Z,12.60
2022-10-06T15:43:32.281Z,12.56
2022-10-06T15:46:02.448Z,12.42
2022-10-06T15:48:29.390Z,12.49
2022-10-06T15:50:56.201Z,12.53
2022-10-06T15:53:23.149Z,12.52
2022-10-06T15:55:49.924Z,12.52
2022-10-06T15:58:25.745Z,12.46
2022-10-06T16:00:52.741Z,12.33
2022-10-06T16:03:26.761Z,12.33
2022-10-06T16:05:57.297Z,12.18
2022-10-06T16:08:53.157Z,12.23
2022-10-06T16:11:20.467Z,12.07
2022-10-06T16:14:10.546Z,11.94
2022-10-06T16:16:42.630Z,11.97
2022-10-06T16:19:30.463Z,11.84
2022-10-06T16:21:59.205Z,11.73
2022-10-06T16:24:27.437Z,11.72
2022-10-06T16:26:54.841Z,11.58
2022-10-06T16:29:22.111Z,11.47
2022-10-06T16:31:49.389Z,11.50
2022-10-06T16:34:16.697Z,11.40
2022-10-06T16:36:43.812Z,11.35
2022-10-06T16:39:19.333Z,11.38
2022-10-06T16:41:46.633Z,11.30
2022-10-06T16:44:13.520Z,11.15
2022-10-06T16:46:40.901Z,11.16
2022-10-06T16:49:08.739Z,11.03
2022-10-06T16:51:43.315Z,11.01
2022-10-06T16:54:12.742Z,10.95
2022-10-06T16:56:45.158Z,10.85
2022-10-06T16:59:15.461Z,10.77
2022-10-06T17:01:43.483Z,10.62
2022-10-06T17:04:17.902Z,10.70
2022-10-06T17:06:54.940Z,10.76
2022-10-06T17:09:37.288Z,10.70
2022-10-06T17:12:04.767Z,10.59
2022-10-06T17:14:34.318Z,10.59
2022-10-06T17:17:01.636Z,10.47
2022-10-06T17:19:35.066Z,10.53
2022-10-06T17:22:02.013Z,10.49
2022-10-06T17:24:29.421Z,10.47
2022-10-06T17:26:57.713Z,10.43
2022-10-06T17:29:54.034Z,10.54
2022-10-06T17:32:21.599Z,10.40
2022-10-06T17:35:00.708Z,10.46
2022-10-06T17:37:30.023Z,10.29
2022-10-06T17:39:56.872Z,10.36
2022-10-06T17:42:23.844Z,10.14
2022-10-06T17:44:50.729Z,10.29
2022-10-06T17:47:17.964Z,10.28
2022-10-06T17:49:44.898Z,10.31
2022-10-06T17:52:11.816Z,10.13
2022-10-06T17:54:43.009Z,10.24
2022-10-06T17:57:21.837Z,10.16
2022-10-06T17:59:48.853Z,10.11
2022-10-06T18:02:18.655Z,10.09
2022-10-06T18:04:45.700Z,10.06
2022-10-06T18:07:35.638Z,10.04
2022-10-06T18:10:02.559Z,10.16
2022-10-06T18:12:32.504Z,10.07
2022-10-06T18:14:59.484Z,10.12
2022-10-06T18:17:27.625Z,10.08
2022-10-06T18:19:54.537Z,9.97
2022-10-06T18:22:21.409Z,10.09
2022-10-06T18:24:48.324Z,9.88
2022-10-06T18:27:15.311Z,9.95
2022-10-06T18:29:42.525Z,9.96
2022-10-06T18:33:31.046Z,9.96
2022-10-06T18:37:43.426Z,9.91
2022-10-06T18:40:11.208Z,9.86
2022-10-06T18:42:57.186Z,9.96
2022-10-06T18:45:38.417Z,9.93
2022-10-06T18:48:06.268Z,9.84
2022-10-06T18:50:33.259Z,9.72
2022-10-06T18:53:19.754Z,9.92
2022-10-06T18:55:46.731Z,9.61
2022-10-06T18:58:13.639Z,9.61
2022-10-06T19:00:40.481Z,9.59
2022-10-06T19:03:07.382Z,9.65
2022-10-06T19:05:50.581Z,9.60
2022-10-06T19:08:17.473Z,9.46
2022-10-06T19:10:44.261Z,9.42
2022-10-06T19:13:11.148Z,9.45
2022-10-06T19:15:37.992Z,9.41
2022-10-06T19:18:05.013Z,9.29
2022-10-06T19:20:31.821Z,9.33
2022-10-06T19:22:58.766Z,9.43
2022-10-06T19:25:25.614Z,9.32
2022-10-06T19:27:52.624Z,9.35
2022-10-06T19:30:19.577Z,9.25
2022-10-06T19:32:46.385Z,9.22
2022-10-06T19:35:13.266Z,9.12
2022-10-06T19:37:40.340Z,9.25
2022-10-06T19:40:07.459Z,9.14
2022-10-06T19:42:34.346Z,9.18
2022-10-06T19:45:01.307Z,9.26
2022-10-06T19:47:28.703Z,9.05
2022-10-06T19:49:58.917Z,9.12
2022-10-06T19:52:27.883Z,9.31
2022-10-06T19:54:54.687Z,9.31
2022-10-06T19:57:23.004Z,9.34
2022-10-06T19:59:50.409Z,9.36
2022-10-06T20:02:27.517Z,9.40
2022-10-06T20:04:54.457Z,9.35
2022-10-06T20:07:42.051Z,9.34
2022-10-06T20:10:10.367Z,9.32
2022-10-06T20:12:37.941Z,9.33
2022-10-06T20:15:06.407Z,9.34
2022-10-06T20:17:33.378Z,9.42
2022-10-06T20:20:00.717Z,9.34
2022-10-06T20:22:27.904Z,9.38
2022-10-06T20:24:54.772Z,9.35
2022-10-06T20:27:21.629Z,9.45
2022-10-06T20:29:48.559Z,9.40
2022-10-06T20:32:15.357Z,9.36
2022-10-06T20:34:42.172Z,9.32
2022-10-06T20:37:09.044Z,9.25
2022-10-06T20:39:35.965Z,9.18
2022-10-06T20:42:03.772Z,9.22
2022-10-06T20:44:30.674Z,9.11
2022-10-06T20:46:57.591Z,9.25
2022-10-06T20:49:24.651Z,9.20
2022-10-06T20:51:51.696Z,9.26
2022-10-06T20:54:20.429Z,9.21
2022-10-06T20:56:52.108Z,9.13
2022-10-06T20:59:20.864Z,9.05
2022-10-06T21:01:47.968Z,9.18
2022-10-06T21:04:14.933Z,9.07
2022-10-06T21:06:42.075Z,8.99
2022-10-06T21:09:13.558Z,8.93
2022-10-06T21:11:40.581Z,8.93
2022-10-06T21:14:07.475Z,8.87
2022-10-06T21:17:00.538Z,8.92
2022-10-06T21:19:27.424Z,8.93
2022-10-06T21:21:54.195Z,8.86
2022-10-06T21:24:21.376Z,8.86
2022-10-06T21:26:49.020Z,8.83
2022-10-06T21:29:16.118Z,8.82
2022-10-06T21:31:44.689Z,8.84
2022-10-06T21:34:12.380Z,8.85
2022-10-06T21:36:39.165Z,8.85
2022-10-06T21:39:06.719Z,8.86
2022-10-06T21:41:36.033Z,8.87
2022-10-06T21:44:05.847Z,8.93
2022-10-06T21:46:52.915Z,8.84
2022-10-06T21:49:24.898Z,8.70
2022-10-06T21:51:55.612Z,8.83
2022-10-06T21:54:23.531Z,8.70
2022-10-06T21:56:50.908Z,8.81
2022-10-06T21:59:18.584Z,8.70
2022-10-06T22:01:46.625Z,8.70
2022-10-06T22:04:14.495Z,8.76
2022-10-06T22:06:43.079Z,8.65
2022-10-06T22:09:15.137Z,8.70
2022-10-06T22:12:04.250Z,8.67
2022-10-06T22:14:31.170Z,8.72
2022-10-06T22:16:57.932Z,8.63
2022-10-06T22:19:24.805Z,8.62
2022-10-06T22:21:51.795Z,8.64
2022-10-06T22:24:23.139Z,8.48
2022-10-06T22:26:50.112Z,8.69
2022-10-06T22:29:35.184Z,8.82
2022-10-06T22:32:02.093Z,8.79
2022-10-06T22:34:28.929Z,8.73
2022-10-06T22:36:59.039Z,8.80
2022-10-06T22:39:25.938Z,8.71
2022-10-06T22:41:52.824Z,8.69
2022-10-06T22:44:19.611Z,8.86
2022-10-06T22:46:46.521Z,8.80
2022-10-06T22:49:13.383Z,8.88
2022-10-06T22:51:40.254Z,8.83
2022-10-06T22:54:07.178Z,8.71
2022-10-06T22:56:34.705Z,8.82
2022-10-06T22:59:01.551Z,8.70
2022-10-06T23:01:29.593Z,8.70
2022-10-06T23:03:57.483Z,8.61
2022-10-06T23:06:25.034Z,8.75
2022-10-06T23:08:52.291Z,8.60
2022-10-06T23:11:20.499Z,8.52
2022-10-06T23:13:47.343Z,8.38
2022-10-06T23:16:16.247Z,8.37
2022-10-06T23:18:44.278Z,8.36
2022-10-06T23:21:20.461Z,8.40
2022-10-06T23:23:49.623Z,8.38
2022-10-06T23:26:17.466Z,8.37
2022-10-06T23:28:44.767Z,8.35
2022-10-06T23:31:12.544Z,8.40
2022-10-06T23:33:39.852Z,8.27
2022-10-06T23:36:09.667Z,8.40
2022-10-06T23:38:37.975Z,8.50
2022-10-06T23:41:06.290Z,8.47
2022-10-06T23:43:33.282Z,8.49
2022-10-06T23:46:00.228Z,8.46
2022-10-06T23:48:27.089Z,8.57
2022-10-06T23:51:02.006Z,8.45
2022-10-06T23:53:30.743Z,8.62
2022-10-06T23:55:57.951Z,8.74
2022-10-06T23:58:26.048Z,8.72
